Time;durP1;ratioP1;P1;durP2;ratioP2;P2;SDS_P1;SDS_P2;PMS_P1;PMS_P2;Temp;Humidity;BMP_temperature;BMP_pressure;BME280_temperature;BME280_humidity;BME280_pressure;Samples;Min_cycle;Max_cycle;Signal;HPM_P1;HPM_P2
2023/02/21 02:15:32;;;;;;;;;;;;;;;17.81;69.61;100418.44;2249825;79;22444;-75
2023/02/21 02:18:39;;;;;;;;;;;;;;;17.79;69.98;100421.28;2226277;79;51721;-74
2023/02/21 02:21:51;;;;;;;;;;;;;;;17.79;70.19;100413.73;2249499;79;51517;-75
2023/02/21 02:24:57;;;;;;;;;;;;;;;17.78;70.17;100414.25;2249543;79;51603;-75
2023/02/21 02:28:01;;;;;;;;;;;;;;;17.77;70.30;100419.78;2249277;79;51482;-75
2023/02/21 02:31:04;;;;;;;;;;;;;;;17.74;70.22;100410.78;2226063;79;52571;-72
2023/02/21 02:34:22;;;;;;;;;;;;;;;17.76;70.07;100408.76;2248468;79;51527;-74
2023/02/21 02:37:38;;;;;;;;;;;;;;;17.74;70.07;100406.77;2259640;78;51691;-73
2023/02/21 02:40:59;;;;;;;;;;;;;;;17.70;70.17;100402.30;2276759;76;50783;-74
2023/02/21 02:44:05;;;;;;;;;;;;;;;17.75;70.01;100395.89;2327058;76;51223;-74
2023/02/21 02:47:08;;;;;;;;;;;;;;;17.77;69.83;100390.34;2320490;76;51601;-74
2023/02/21 02:50:11;;;;;;;;;;;;;;;17.74;70.08;100397.41;2298140;77;50291;-73
2023/02/21 02:53:12;;;;;;;;;;;;;;;17.74;70.37;100402.75;2298329;77;51490;-73
2023/02/21 02:56:15;;;;;;;;;;;;;;;17.73;70.44;100401.10;2240569;77;51656;-74
2023/02/21 02:59:19;;;;;;;;;;;;;;;17.74;70.40;100400.90;2265211;77;51556;-74
2023/02/21 03:02:22;;;;;;;;;;;;;;;17.78;70.36;100396.03;2298317;77;52125;-74
2023/02/21 03:05:25;;;;;;;;;;;;;;;17.75;70.38;100403.92;2298404;77;51386;-74
2023/02/21 03:08:35;;;;;;;;;;;;;;;17.74;70.21;100403.58;2263003;77;53454;-74
2023/02/21 03:11:37;;;;;;;;;;;;;;;17.74;70.18;100396.89;2272359;76;51499;-73
2023/02/21 03:14:41;;;;;;;;;;;;;;;17.71;70.29;100400.45;2284407;76;51565;-74
2023/02/21 03:17:43;;;;;;;;;;;;;;;17.73;70.18;100399.77;2271565;76;51462;-74
2023/02/21 03:20:45;;;;;;;;;;;;;;;17.76;69.97;100391.37;2246392;79;50646;-74
2023/02/21 03:23:48;;;;;;;;;;;;;;;17.75;70.23;100395.03;2246691;79;51495;-74
2023/02/21 03:26:50;;;;;;;;;;;;;;;17.75;70.27;100384.33;2246482;79;50397;-74
2023/02/21 03:29:52;;;;;;;;;;;;;;;17.76;70.33;100392.19;2246359;79;51520;-74
2023/02/21 03:32:54;;;;;;;;;;;;;;;17.76;70.33;100392.19;2223427;79;51808;-74
2023/02/21 03:35:56;;;;;;;;;;;;;;;17.76;70.35;100398.05;2246585;79;51628;-74
2023/02/21 03:38:57;;;;;;;;;;;;;;;17.75;70.42;100385.67;2252464;77;50276;-74
2023/02/21 03:41:59;;;;;;;;;;;;;;;17.74;70.45;100394.21;2292122;76;50734;-73
2023/02/21 03:45:00;;;;;;;;;;;;;;;17.72;70.53;100394.07;2324655;76;51645;-74
2023/02/21 03:48:02;;;;;;;;;;;;;;;17.71;70.48;100395.09;2324413;76;51572;-75
2023/02/21 03:51:04;;;;;;;;;;;;;;;17.73;70.51;100401.10;2322912;76;50777;-74
2023/02/21 03:54:05;;;;;;;;;;;;;;;17.73;70.39;100397.09;2323066;76;50333;-74
2023/02/21 03:57:07;;;;;;;;;;;;;;;17.70;70.48;100397.43;2324698;76;51651;-75
2023/02/21 04:00:09;;;;;;;;;;;;;;;17.72;70.43;100400.25;2324690;76;51486;-74
2023/02/21 04:03:11;;;;;;;;;;;;;;;17.72;70.62;100399.42;2324782;76;50171;-73
2023/02/21 04:06:12;;;;;;;;;;;;;;;17.74;70.43;100408.11;2324625;76;50099;-74
2023/02/21 04:09:14;;;;;;;;;;;;;;;17.74;70.52;100409.44;2313179;76;51173;-75
2023/02/21 04:12:15;;;;;;;;;;;;;;;17.76;70.28;100415.45;2254983;77;50046;-74
2023/02/21 04:15:17;;;;;;;;;;;;;;;17.73;70.51;100417.16;2220662;79;50331;-73
2023/02/21 04:18:19;;;;;;;;;;;;;;;17.68;70.59;100417.70;2186335;80;50623;-73
2023/02/21 04:21:20;;;;;;;;;;;;;;;17.67;70.64;100427.23;2163272;80;52518;-74
2023/02/21 04:24:22;;;;;;;;;;;;;;;17.64;70.64;100430.59;2209493;79;51429;-74
2023/02/21 04:27:23;;;;;;;;;;;;;;;17.64;70.54;100433.78;2244387;79;51348;-74
2023/02/21 04:30:25;;;;;;;;;;;;;;;17.66;70.63;100431.77;2206036;80;51495;-74
2023/02/21 04:33:27;;;;;;;;;;;;;;;17.70;70.57;100429.54;2184010;80;49557;-74
2023/02/21 04:36:28;;;;;;;;;;;;;;;17.74;70.62;100437.55;2206329;80;50688;-73
2023/02/21 04:39:30;;;;;;;;;;;;;;;17.71;70.79;100437.91;2207302;79;51439;-74
2023/02/21 04:42:32;;;;;;;;;;;;;;;17.74;70.61;100441.55;2263239;77;51557;-73
2023/02/21 04:45:33;;;;;;;;;;;;;;;17.76;70.56;100443.55;2197857;79;52362;-74
2023/02/21 04:48:35;;;;;;;;;;;;;;;17.75;70.45;100440.53;2211494;79;51489;-74
2023/02/21 04:51:36;;;;;;;;;;;;;;;17.76;70.35;100431.51;2209860;80;50358;-75
2023/02/21 04:54:38;;;;;;;;;;;;;;;17.73;70.46;100440.73;2209888;79;50188;-74
2023/02/21 04:57:39;;;;;;;;;;;;;;;17.72;70.38;100434.20;2185914;80;50092;-74
2023/02/21 05:00:41;;;;;;;;;;;;;;;17.69;70.55;100434.58;2209657;80;50465;-74
2023/02/21 05:03:43;;;;;;;;;;;;;;;17.66;70.70;100435.78;2208925;80;51435;-73
2023/02/21 05:06:44;;;;;;;;;;;;;;;17.66;70.54;100428.27;2209056;79;51493;-73
2023/02/21 05:09:46;;;;;;;;;;;;;;;17.72;70.56;100434.20;2222957;77;51075;-76
2023/02/21 05:12:48;;;;;;;;;;;;;;;17.71;70.66;100433.90;2291129;76;50556;-74
2023/02/21 05:15:49;;;;;;;;;;;;;;;17.72;70.54;100435.55;2331404;76;50474;-75
2023/02/21 05:18:51;;;;;;;;;;;;;;;17.73;70.75;100445.26;2322510;76;51449;-75
2023/02/21 05:21:56;;;;;;;;;;;;;;;17.73;70.21;100440.73;2234048;77;52830;-75
2023/02/21 05:24:59;;;;;;;;;;;;;;;17.74;70.69;100446.91;2227294;79;49998;-75
2023/02/21 05:28:00;;;;;;;;;;;;;;;17.74;70.39;100438.88;2250259;78;50463;-73
2023/02/21 05:31:02;;;;;;;;;;;;;;;17.74;69.99;100443.72;2249813;78;50377;-73
2023/02/21 05:34:03;;;;;;;;;;;;;;;17.70;70.15;100437.56;2226578;79;50663;-73
2023/02/21 05:37:05;;;;;;;;;;;;;;;17.74;69.85;100441.55;2249382;79;51398;-73
2023/02/21 05:40:07;;;;;;;;;;;;;;;17.73;69.81;100445.26;2262497;76;51423;-73
2023/02/21 05:43:08;;;;;;;;;;;;;;;17.72;69.67;100451.61;2321655;76;50286;-73
2023/02/21 05:46:20;;;;;;;;;;;;;;;17.71;69.61;100447.28;2308336;76;51158;-74
2023/02/21 05:49:21;;;;;;;;;;;;;;;17.66;69.33;100456.36;2299085;76;49954;-74
2023/02/21 05:52:23;;;;;;;;;;;;;;;17.65;69.79;100458.20;2263540;77;50796;-74
2023/02/21 05:55:25;;;;;;;;;;;;;;;17.67;69.57;100464.19;2263415;78;51409;-73
2023/02/21 05:58:27;;;;;;;;;;;;;;;17.66;69.32;100467.06;2260852;78;51221;-73
2023/02/21 06:01:28;;;;;;;;;;;;;;;17.63;69.24;100466.41;2286841;78;50352;-73
2023/02/21 06:04:30;;;;;;;;;;;;;;;17.61;69.26;100465.74;2287055;78;50254;-73
2023/02/21 06:07:31;;;;;;;;;;;;;;;17.60;69.54;100470.78;2286744;78;50724;-73
2023/02/21 06:10:33;;;;;;;;;;;;;;;17.59;69.66;100481.14;2276579;76;51460;-73
2023/02/21 06:13:34;;;;;;;;;;;;;;;17.56;69.74;100485.52;2307310;76;51454;-74
2023/02/21 06:16:36;;;;;;;;;;;;;;;17.59;69.08;100491.84;2286449;78;51511;-73
2023/02/21 06:19:38;;;;;;;;;;;;;;;17.63;69.56;100491.82;2268028;78;51559;-73
2023/02/21 06:22:39;;;;;;;;;;;;;;;17.67;69.44;100498.14;2204232;79;52600;-73
2023/02/21 06:25:41;;;;;;;;;;;;;;;17.67;69.41;100493.62;2285525;78;51498;-73
2023/02/21 06:28:43;;;;;;;;;;;;;;;17.68;69.45;100504.66;2284776;78;50622;-73
2023/02/21 06:31:44;;;;;;;;;;;;;;;17.67;69.31;100511.01;2263675;78;50051;-73
2023/02/21 06:34:46;;;;;;;;;;;;;;;17.63;69.23;100509.21;2239007;78;51202;-73
2023/02/21 06:37:47;;;;;;;;;;;;;;;17.64;68.60;100512.72;2265792;78;50811;-72
2023/02/21 06:40:49;;;;;;;;;;;;;;;17.69;68.68;100522.88;2263069;78;50729;-73
2023/02/21 06:43:52;;;;;;;;;;;;;;;17.68;68.76;100520.72;2245555;78;50262;-73
2023/02/21 06:46:54;;;;;;;;;;;;;;;17.68;68.56;100518.55;2263167;78;51210;-73
2023/02/21 06:49:55;;;;;;;;;;;;;;;17.75;68.42;100523.01;2288019;78;50733;-73
2023/02/21 06:52:57;;;;;;;;;;;;;;;17.87;68.01;100526.09;2229268;79;50820;-73
2023/02/21 06:55:59;;;;;;;;;;;;;;;17.94;67.90;100525.70;2228806;78;50681;-74
2023/02/21 06:59:00;;;;;;;;;;;;;;;18.00;67.81;100542.36;2227242;79;50188;-75
2023/02/21 07:02:03;;;;;;;;;;;;;;;17.97;67.99;100542.73;2250178;79;50088;-75
2023/02/21 07:05:05;;;;;;;;;;;;;;;17.90;68.48;100554.34;2227622;79;51573;-75
2023/02/21 07:08:07;;;;;;;;;;;;;;;17.85;68.83;100557.56;2227419;79;51498;-75
2023/02/21 07:11:08;;;;;;;;;;;;;;;17.82;68.61;100561.42;2233186;78;50993;-75
2023/02/21 07:14:10;;;;;;;;;;;;;;;17.81;68.89;100572.33;2264247;78;50634;-74
2023/02/21 07:17:12;;;;;;;;;;;;;;;17.75;68.92;100579.20;2287693;78;51674;-74
2023/02/21 07:20:13;;;;;;;;;;;;;;;17.69;68.87;100585.77;2287498;78;51352;-74
2023/02/21 07:23:15;;;;;;;;;;;;;;;17.66;69.20;100583.45;2287479;77;49510;-74
2023/02/21 07:26:16;;;;;;;;;;;;;;;17.72;68.84;100592.09;2262204;78;51414;-75
2023/02/21 07:29:18;;;;;;;;;;;;;;;17.76;68.40;100588.89;2256082;78;52625;-74
2023/02/21 07:32:21;;;;;;;;;;;;;;;17.79;68.45;100599.73;2281521;78;51560;-73
2023/02/21 07:35:22;;;;;;;;;;;;;;;17.78;68.47;100601.59;2281736;78;50091;-73
2023/02/21 07:38:26;;;;;;;;;;;;;;;17.79;68.32;100603.75;2279886;78;50434;-73
2023/02/21 07:41:27;;;;;;;;;;;;;;;17.77;68.31;100605.77;2306304;76;50601;-74
2023/02/21 07:44:29;;;;;;;;;;;;;;;17.74;68.42;100616.33;2325447;76;50090;-74
2023/02/21 07:47:30;;;;;;;;;;;;;;;17.71;68.29;100611.85;2327293;76;50269;-74
2023/02/21 07:50:32;;;;;;;;;;;;;;;17.67;68.38;100623.91;2302395;76;52567;-74
2023/02/21 07:53:34;;;;;;;;;;;;;;;17.63;68.34;100617.58;2327127;76;50368;-73
2023/02/21 07:56:35;;;;;;;;;;;;;;;17.61;68.47;100620.93;2328530;76;51410;-72
2023/02/21 07:59:37;;;;;;;;;;;;;;;17.64;68.66;100620.56;2326872;76;51415;-72
2023/02/21 08:02:39;;;;;;;;;;;;;;;17.75;68.04;100614.00;2302733;76;51024;-73
2023/02/21 08:05:40;;;;;;;;;;;;;;;17.89;67.57;100619.09;2329124;76;51447;-73
2023/02/21 08:08:42;;;;;;;;;;;;;;;17.95;67.27;100622.91;2327601;76;51580;-74
2023/02/21 08:11:43;;;;;;;;;;;;;;;17.91;67.32;100617.08;2322890;76;51445;-74
2023/02/21 08:14:45;;;;;;;;;;;;;;;17.91;67.27;100626.97;2266456;77;50240;-74
2023/02/21 08:17:51;;;;;;;;;;;;;;;17.90;67.37;100646.70;2266555;77;51453;-73
2023/02/21 08:20:59;;;;;;;;;;;;;;;17.84;67.51;100640.22;2299313;77;51623;-73
2023/02/21 08:23:58;;;;;;;;;;;;;;;17.81;67.65;100641.92;2299262;76;22425;-73
2023/02/21 08:27:00;;;;;;;;;;;;;;;17.79;67.82;100654.61;2241894;77;52512;-73
2023/02/21 08:30:01;;;;;;;;;;;;;;;17.78;67.89;100643.59;2299261;77;51509;-73
2023/02/21 08:33:03;;;;;;;;;;;;;;;17.73;68.13;100648.13;2299707;77;51589;-73
2023/02/21 08:36:05;;;;;;;;;;;;;;;17.77;67.77;100647.25;2299667;77;51530;-73
2023/02/21 08:39:06;;;;;;;;;;;;;;;17.85;67.35;100652.58;2263470;77;51571;-73
2023/02/21 08:42:09;;;;;;;;;;;;;;;17.91;67.11;100653.22;2304620;76;50195;-74
2023/02/21 08:45:12;;;;;;;;;;;;;;;17.93;67.01;100657.90;2335934;76;51874;-74
2023/02/21 08:48:13;;;;;;;;;;;;;;;17.91;67.07;100658.58;2331485;75;51636;-74
2023/02/21 08:51:15;;;;;;;;;;;;;;;17.82;67.36;100661.80;2309772;76;51703;-73
2023/02/21 08:54:18;;;;;;;;;;;;;;;17.80;67.51;100661.16;2336002;76;49969;-74
2023/02/21 08:57:19;;;;;;;;;;;;;;;17.77;67.77;100669.48;2331307;76;51554;-74
2023/02/21 09:00:29;;;;;;;;;;;;;;;17.76;67.90;100670.52;2335269;76;51571;-74
2023/02/21 09:03:28;;;;;;;;;;;;;;;17.74;68.02;100677.05;2329918;76;22380;-74
2023/02/21 09:06:29;;;;;;;;;;;;;;;17.71;68.10;100676.08;2309061;76;49573;-74
2023/02/21 09:09:32;;;;;;;;;;;;;;;17.73;68.02;100672.72;2331475;76;50256;-74
2023/02/21 09:12:33;;;;;;;;;;;;;;;17.76;67.59;100680.39;2310364;75;50781;-74
2023/02/21 09:15:35;;;;;;;;;;;;;;;17.83;67.26;100669.34;2276136;76;51698;-74
2023/02/21 09:18:36;;;;;;;;;;;;;;;17.87;67.17;100680.52;2327059;76;50425;-73
2023/02/21 09:21:44;;;;;;;;;;;;;;;17.85;67.17;100675.33;2320553;76;50638;-73
2023/02/21 09:24:41;;;;;;;;;;;;;;;17.80;67.30;100690.61;2247715;79;22957;-72
2023/02/21 09:27:43;;;;;;;;;;;;;;;17.78;67.50;100691.25;2248073;79;52483;-72
2023/02/21 09:30:44;;;;;;;;;;;;;;;17.75;67.62;100690.75;2248096;79;50633;-74
2023/02/21 09:33:46;;;;;;;;;;;;;;;17.74;67.79;100698.46;2248177;79;51617;-74
2023/02/21 09:36:49;;;;;;;;;;;;;;;17.73;67.80;100698.14;2248318;79;50758;-73
2023/02/21 09:39:51;;;;;;;;;;;;;;;17.72;67.68;100707.16;2201937;79;49334;-73
2023/02/21 09:42:53;;;;;;;;;;;;;;;17.71;68.04;100710.35;2247964;79;50397;-74
2023/02/21 09:45:55;;;;;;;;;;;;;;;17.72;67.52;100709.33;2248245;79;52352;-73
2023/02/21 09:48:57;;;;;;;;;;;;;;;17.83;67.09;100713.00;2248108;79;50362;-73
2023/02/21 09:51:59;;;;;;;;;;;;;;;17.87;66.85;100700.08;2277846;76;51726;-73
2023/02/21 09:55:02;;;;;;;;;;;;;;;17.84;66.89;100717.84;2331498;76;50344;-73
2023/02/21 09:58:05;;;;;;;;;;;;;;;17.83;66.98;100720.20;2331171;76;50308;-74
2023/02/21 10:01:08;;;;;;;;;;;;;;;17.79;67.24;100718.84;2331339;76;51531;-74
2023/02/21 10:04:13;;;;;;;;;;;;;;;17.78;67.30;100729.23;2309490;76;51888;-74
2023/02/21 10:07:17;;;;;;;;;;;;;;;17.76;67.45;100730.73;2331502;76;51593;-73
2023/02/21 10:10:23;;;;;;;;;;;;;;;17.76;67.39;100724.55;2331346;76;50341;-74
2023/02/21 10:13:33;;;;;;;;;;;;;;;17.72;67.67;100715.19;2331283;76;50315;-74
2023/02/21 10:16:45;;;;;;;;;;;;;;;17.70;67.81;100730.58;2309202;76;52302;-74
2023/02/21 10:19:48;;;;;;;;;;;;;;;17.72;67.55;100732.59;2329513;76;51620;-75
2023/02/21 10:22:50;;;;;;;;;;;;;;;17.79;66.99;100726.39;2308672;76;50468;-74
2023/02/21 10:25:52;;;;;;;;;;;;;;;17.83;66.83;100733.58;2299304;77;51569;-74
2023/02/21 10:28:54;;;;;;;;;;;;;;;17.90;66.58;100733.19;2298987;77;50268;-74
2023/02/21 10:31:57;;;;;;;;;;;;;;;17.91;66.52;100736.20;2266590;77;51620;-74
2023/02/21 10:34:59;;;;;;;;;;;;;;;17.89;66.56;100738.22;2299395;77;50809;-74
2023/02/21 10:38:01;;;;;;;;;;;;;;;17.82;66.79;100735.91;2299252;77;50155;-74
2023/02/21 10:41:03;;;;;;;;;;;;;;;17.77;67.11;100740.92;2266364;77;50653;-74
2023/02/21 10:44:07;;;;;;;;;;;;;;;17.76;67.14;100744.63;2266313;77;51558;-74
2023/02/21 10:47:10;;;;;;;;;;;;;;;17.74;67.34;100740.77;2299144;76;51690;-74
2023/02/21 10:50:11;;;;;;;;;;;;;;;17.72;67.49;100741.95;2299722;76;50726;-74
2023/02/21 10:53:29;;;;;;;;;;;;;;;17.68;67.44;100740.14;2293932;76;50933;-74
2023/02/21 10:56:31;;;;;;;;;;;;;;;17.74;67.10;100741.28;2327354;76;51435;-74
2023/02/21 10:59:37;;;;;;;;;;;;;;;17.78;66.90;100735.92;2327133;76;51614;-74
2023/02/21 11:02:39;;;;;;;;;;;;;;;17.78;66.80;100744.78;2327428;76;51561;-74
2023/02/21 11:05:41;;;;;;;;;;;;;;;17.77;66.94;100749.78;2303064;76;52747;-74
2023/02/21 11:08:43;;;;;;;;;;;;;;;17.74;67.08;100744.78;2327028;76;52447;-74
2023/02/21 11:11:44;;;;;;;;;;;;;;;17.74;67.20;100751.98;2327291;75;50302;-73
2023/02/21 11:14:54;;;;;;;;;;;;;;;17.74;67.12;100739.95;2327299;76;50438;-74
2023/02/21 11:18:05;;;;;;;;;;;;;;;17.70;67.30;100747.50;2326881;76;50752;-74
2023/02/21 11:21:11;;;;;;;;;;;;;;;17.67;67.52;100741.64;2302777;76;50288;-74
2023/02/21 11:24:13;;;;;;;;;;;;;;;17.63;67.63;100739.33;2313953;76;50090;-73
2023/02/21 11:27:15;;;;;;;;;;;;;;;17.63;67.61;100750.03;2298735;77;50742;-73
2023/02/21 11:30:21;;;;;;;;;;;;;;;17.68;67.15;100737.47;2265401;77;52586;-73
2023/02/21 11:33:23;;;;;;;;;;;;;;;17.76;66.84;100743.28;2299273;77;51537;-73
2023/02/21 11:36:28;;;;;;;;;;;;;;;17.78;66.73;100746.12;2299361;77;51615;-74
2023/02/21 11:39:32;;;;;;;;;;;;;;;17.77;66.76;100746.28;2299091;77;50134;-74
2023/02/21 11:42:34;;;;;;;;;;;;;;;17.76;66.92;100748.64;2265920;77;51800;-74
2023/02/21 11:45:36;;;;;;;;;;;;;;;17.73;66.90;100743.13;2299245;77;50763;-75
2023/02/21 11:48:40;;;;;;;;;;;;;;;17.71;67.09;100741.64;2298989;77;50668;-75
2023/02/21 11:51:43;;;;;;;;;;;;;;;17.69;67.25;100737.78;2243944;78;52235;-74
2023/02/21 11:54:44;;;;;;;;;;;;;;;17.65;67.34;100728.45;2281725;76;51011;-73
2023/02/21 11:57:48;;;;;;;;;;;;;;;17.66;67.28;100745.34;2331585;76;51410;-74
2023/02/21 12:01:00;;;;;;;;;;;;;;;17.66;67.39;100744.00;2331342;76;51498;-74
2023/02/21 12:03:56;;;;;;;;;;;;;;;17.69;67.00;100746.33;2329159;76;22516;-73
2023/02/21 12:07:04;;;;;;;;;;;;;;;17.71;66.77;100740.30;2309401;76;52506;-74
2023/02/21 12:10:10;;;;;;;;;;;;;;;17.73;66.68;100757.02;2331671;76;22552;-74
2023/02/21 12:13:19;;;;;;;;;;;;;;;17.71;66.76;100758.52;2332229;76;50278;-74
2023/02/21 12:16:26;;;;;;;;;;;;;;;17.70;66.91;100750.66;2331958;76;52220;-74
2023/02/21 12:19:38;;;;;;;;;;;;;;;17.70;66.96;100759.55;2309491;76;51118;-74
2023/02/21 12:22:47;;;;;;;;;;;;;;;17.65;67.14;100763.25;2288039;76;51154;-74
2023/02/21 12:25:53;;;;;;;;;;;;;;;17.65;67.20;100764.58;2250651;79;50830;-75
2023/02/21 12:29:13;;;;;;;;;;;;;;;17.60;67.07;100763.76;2250126;77;51455;-74
2023/02/21 12:32:20;;;;;;;;;;;;;;;17.57;67.19;100760.09;2251996;79;52317;-74
2023/02/21 12:35:33;;;;;;;;;;;;;;;17.62;67.24;100748.85;2250506;79;21896;-73
2023/02/21 12:38:49;;;;;;;;;;;;;;;17.66;66.79;100751.52;2250506;77;51634;-74
2023/02/21 12:41:52;;;;;;;;;;;;;;;17.71;66.49;100758.52;2250041;77;51417;-74
2023/02/21 12:44:55;;;;;;;;;;;;;;;17.74;66.27;100755.48;2250621;79;51511;-73
2023/02/21 12:48:02;;;;;;;;;;;;;;;17.75;66.30;100760.33;2250448;79;51327;-74
2023/02/21 12:51:05;;;;;;;;;;;;;;;17.73;66.45;100763.71;2261265;77;52251;-73
2023/02/21 12:54:23;;;;;;;;;;;;;;;17.73;66.45;100765.05;2268380;78;51493;-74
2023/02/21 12:57:27;;;;;;;;;;;;;;;17.71;66.54;100754.51;2262829;78;50114;-74
2023/02/21 13:00:30;;;;;;;;;;;;;;;17.66;66.78;100758.72;2287887;78;50207;-74
2023/02/21 13:03:39;;;;;;;;;;;;;;;17.64;66.85;100758.87;2288187;78;50322;-74
2023/02/21 13:06:55;;;;;;;;;;;;;;;17.61;66.92;100749.36;2288312;78;50785;-73
2023/02/21 13:10:15;;;;;;;;;;;;;;;17.60;67.07;100751.72;2264163;77;52399;-73
2023/02/21 13:13:18;;;;;;;;;;;;;;;17.64;66.57;100749.01;2288144;78;51595;-74
2023/02/21 13:16:20;;;;;;;;;;;;;;;17.67;66.33;100757.19;2288417;78;50680;-74
2023/02/21 13:19:21;;;;;;;;;;;;;;;17.70;66.26;100738.61;2288066;78;49765;-74
2023/02/21 13:26:06;;;;;;;;;;;;;;;17.70;66.24;100741.29;2250623;79;23480;-74
2023/02/21 13:29:15;;;;;;;;;;;;;;;17.68;66.43;100743.33;2249724;77;50741;-74
2023/02/21 13:32:21;;;;;;;;;;;;;;;17.64;66.65;100746.33;2249782;79;50930;-74
2023/02/21 13:35:22;;;;;;;;;;;;;;;17.64;66.52;100746.84;2250381;78;22375;-74
2023/02/21 13:38:24;;;;;;;;;;;;;;;17.61;66.66;100742.67;2249691;77;50108;-74
2023/02/21 13:41:27;;;;;;;;;;;;;;;17.58;66.57;100740.86;2226275;79;50623;-74
2023/02/21 13:44:39;;;;;;;;;;;;;;;17.61;66.71;100740.50;2250112;79;50109;-74
2023/02/21 13:47:46;;;;;;;;;;;;;;;17.66;66.27;100742.66;2226338;79;52758;-74
2023/02/21 13:50:51;;;;;;;;;;;;;;;17.67;66.25;100747.82;2246326;78;51632;-73
2023/02/21 13:54:09;;;;;;;;;;;;;;;17.67;66.27;100745.15;2293296;76;51720;-72
2023/02/21 13:57:12;;;;;;;;;;;;;;;17.66;66.31;100741.33;2331513;76;50797;-75
2023/02/21 14:00:24;;;;;;;;;;;;;;;17.67;66.21;100745.66;2308802;76;51767;-74
2023/02/21 14:03:27;;;;;;;;;;;;;;;17.63;66.38;100737.98;2331468;76;50735;-75
2023/02/21 14:06:36;;;;;;;;;;;;;;;17.64;66.47;100744.16;2331701;76;51564;-74
2023/02/21 14:09:38;;;;;;;;;;;;;;;17.58;66.39;100752.39;2331230;76;50336;-75
2023/02/21 14:12:42;;;;;;;;;;;;;;;17.56;66.24;100749.05;2309197;76;51719;-75
2023/02/21 14:15:44;;;;;;;;;;;;;;;17.53;66.56;100744.56;2331378;76;51677;-73
2023/02/21 14:18:51;;;;;;;;;;;;;;;17.56;66.42;100742.36;2331371;76;50654;-74
2023/02/21 14:21:56;;;;;;;;;;;;;;;17.61;66.06;100729.30;2320561;76;51440;-73
2023/02/21 14:25:06;;;;;;;;;;;;;;;17.69;65.73;100745.81;2293435;77;51019;-74
2023/02/21 14:28:21;;;;;;;;;;;;;;;17.72;65.67;100744.63;2292188;77;50277;-74
2023/02/21 14:31:41;;;;;;;;;;;;;;;17.69;65.82;100744.48;2253977;77;51550;-74
2023/02/21 14:34:51;;;;;;;;;;;;;;;17.69;65.83;100748.49;2292756;77;51596;-73
2023/02/21 14:38:03;;;;;;;;;;;;;;;17.69;65.87;100749.00;2271023;77;49685;-73
2023/02/21 14:41:12;;;;;;;;;;;;;;;17.66;66.05;100763.56;2292623;77;51603;-75
2023/02/21 14:44:17;;;;;;;;;;;;;;;17.60;66.08;100754.91;2292463;77;51595;-73
2023/02/21 14:47:26;;;;;;;;;;;;;;;17.54;66.31;100756.41;2293000;76;22240;-74
2023/02/21 14:50:32;;;;;;;;;;;;;;;17.52;66.56;100757.59;2292464;77;50406;-74
2023/02/21 14:53:44;;;;;;;;;;;;;;;17.57;66.31;100758.77;2314678;76;51413;-73
2023/02/21 14:57:06;;;;;;;;;;;;;;;17.61;65.89;100756.05;2229268;77;50190;-74
2023/02/21 15:00:24;;;;;;;;;;;;;;;17.66;65.79;100763.56;2298184;76;50333;-74
2023/02/21 15:03:27;;;;;;;;;;;;;;;17.67;65.80;100761.72;2265981;77;54737;-73
2023/02/21 15:06:29;;;;;;;;;;;;;;;17.66;65.94;100758.21;2299259;77;50804;-74
2023/02/21 15:09:30;;;;;;;;;;;;;;;17.66;65.92;100777.45;2299118;77;50774;-73
2023/02/21 15:12:32;;;;;;;;;;;;;;;17.64;65.97;100772.27;2299260;77;50795;-74
2023/02/21 15:15:35;;;;;;;;;;;;;;;17.60;65.95;100770.95;2266029;77;51276;-73
2023/02/21 15:18:37;;;;;;;;;;;;;;;17.58;65.96;100767.62;2299061;77;50561;-73
2023/02/21 15:21:39;;;;;;;;;;;;;;;17.54;66.25;100779.66;2266679;76;50820;-73
2023/02/21 15:24:41;;;;;;;;;;;;;;;17.51;66.32;100780.84;2297021;76;53468;-73
2023/02/21 15:27:50;;;;;;;;;;;;;;;17.58;66.10;100791.19;2271050;77;49645;-73
2023/02/21 15:30:57;;;;;;;;;;;;;;;17.63;65.66;100783.47;2292439;77;50751;-74
2023/02/21 15:33:59;;;;;;;;;;;;;;;17.71;65.45;100787.13;2292151;77;50470;-74
2023/02/21 15:37:02;;;;;;;;;;;;;;;17.76;65.18;100788.27;2292730;77;52405;-74
2023/02/21 15:40:11;;;;;;;;;;;;;;;17.75;65.21;100792.45;2270738;77;51198;-72
2023/02/21 15:43:13;;;;;;;;;;;;;;;17.71;65.38;100793.82;2292729;76;22389;-73
2023/02/21 15:46:18;;;;;;;;;;;;;;;17.70;65.48;100798.34;2291682;76;50338;-74
2023/02/21 15:49:21;;;;;;;;;;;;;;;17.68;65.57;100804.37;2292412;77;50317;-73
2023/02/21 15:52:31;;;;;;;;;;;;;;;17.67;65.71;100804.53;2262282;76;51673;-73
2023/02/21 15:55:32;;;;;;;;;;;;;;;17.75;65.55;100812.52;2300723;76;51528;-73
2023/02/21 15:58:34;;;;;;;;;;;;;;;17.69;65.71;100811.38;2295721;77;51451;-75
2023/02/21 16:01:36;;;;;;;;;;;;;;;17.68;65.56;100813.73;2277770;77;51621;-74
2023/02/21 16:04:38;;;;;;;;;;;;;;;17.71;65.34;100816.06;2261048;77;52679;-74
2023/02/21 16:07:40;;;;;;;;;;;;;;;17.71;65.34;100816.56;2291258;77;50681;-74
2023/02/21 16:10:41;;;;;;;;;;;;;;;17.72;65.24;100819.05;2293658;77;50378;-74
2023/02/21 16:13:43;;;;;;;;;;;;;;;17.66;65.49;100814.91;2295845;77;50634;-75
2023/02/21 16:16:45;;;;;;;;;;;;;;;17.63;65.69;100819.59;2262681;77;51603;-75
2023/02/21 16:19:48;;;;;;;;;;;;;;;17.63;65.75;100821.45;2295668;77;51610;-74
2023/02/21 16:22:52;;;;;;;;;;;;;;;17.60;65.85;100825.30;2273881;78;50125;-73
2023/02/21 16:25:55;;;;;;;;;;;;;;;17.59;66.04;100820.94;2249026;79;50307;-73
2023/02/21 16:28:58;;;;;;;;;;;;;;;17.60;66.04;100825.81;2225934;79;52549;-73
2023/02/21 16:32:00;;;;;;;;;;;;;;;17.59;65.77;100830.81;2226998;79;23039;-73
2023/02/21 16:35:01;;;;;;;;;;;;;;;17.63;65.93;100826.29;2272922;77;50298;-72
2023/02/21 16:38:03;;;;;;;;;;;;;;;17.64;66.03;100836.48;2269796;77;51459;-73
2023/02/21 16:41:04;;;;;;;;;;;;;;;17.64;65.93;100841.83;2269643;77;52386;-72
2023/02/21 16:44:06;;;;;;;;;;;;;;;17.66;65.45;100845.69;2291233;77;51470;-73
2023/02/21 16:53:40;;;;;;;;;;;;;;;17.61;65.30;100851.55;2214417;76;23078;-72
2023/02/21 17:00:35;;;;;;;;;;;;;;;17.56;65.40;100853.91;2222055;75;23152;-73
2023/02/21 17:07:42;;;;;;;;;;;;;;;;;;;;;
2023/02/21 17:27:19;;;;;;;;;;;;;;;17.75;64.92;100878.95;1959726;88;24147;-72
2023/02/21 17:33:58;;;;;;;;;;;;;;;17.65;65.66;100889.02;1993032;88;23277;-72
2023/02/21 17:37:18;;;;;;;;;;;;;;;17.64;65.93;100894.84;1983804;87;51401;-72
2023/02/21 17:40:21;;;;;;;;;;;;;;;17.66;66.02;100893.86;2030735;86;52275;-72
2023/02/21 17:43:41;;;;;;;;;;;;;;;;;;;;;
2023/02/21 17:52:54;;;;;;;;;;;;;;;17.94;64.75;100907.19;2000595;86;23253;-71
2023/02/21 17:59:26;;;;;;;;;;;;;;;17.73;65.76;100917.09;1896135;92;22660;-72
2023/02/21 18:05:52;;;;;;;;;;;;;;;17.68;65.89;100921.28;1827968;93;23857;-72
2023/02/21 18:08:56;;;;;;;;;;;;;;;17.66;65.94;100924.63;1915599;92;51540;-72
2023/02/21 18:12:03;;;;;;;;;;;;;;;17.63;66.02;100922.63;1808037;95;23337;-72
2023/02/21 18:15:26;;;;;;;;;;;;;;;17.64;66.00;100926.13;1908037;91;49535;-72
2023/02/21 18:18:32;;;;;;;;;;;;;;;17.64;66.16;100928.80;1917621;91;51497;-72
2023/02/21 18:21:46;;;;;;;;;;;;;;;17.63;66.12;100930.65;1962518;88;52577;-72
2023/02/21 18:25:20;;;;;;;;;;;;;;;;;;;;;
2023/02/21 18:38:07;;;;;;;;;;;;;;;17.74;66.14;100927.28;2203592;76;22538;-72
2023/02/21 18:41:16;;;;;;;;;;;;;;;17.71;66.14;100928.97;2214053;77;22400;-73
2023/02/21 18:44:25;;;;;;;;;;;;;;;17.68;65.88;100936.84;2206503;80;51526;-72
2023/02/21 18:47:39;;;;;;;;;;;;;;;;;;;;;
2023/02/21 18:53:41;;;;;;;;;;;;;;;17.62;65.85;100941.03;2189367;80;22530;-73
2023/02/21 18:56:51;;;;;;;;;;;;;;;17.60;65.82;100939.53;2205850;80;22695;-73
2023/02/21 19:03:10;;;;;;;;;;;;;;;17.58;65.74;100942.88;2187414;79;22568;-73
2023/02/21 19:06:17;;;;;;;;;;;;;;;17.58;65.72;100947.71;2148633;80;22666;-73
2023/02/21 19:09:28;;;;;;;;;;;;;;;;;;;;;
2023/02/21 19:12:25;;;;;;;;;;;;;;;17.59;65.99;100940.52;2138428;81;22661;-71
2023/02/21 19:15:30;;;;;;;;;;;;;;;17.62;65.93;100940.17;2130145;81;22568;-70